Sylvan Township, Michigan
Current Conditions -  °F | °C
As of 11:53 PM on Thursday 30 Oct 2014 (Local Time) from KARB Reporting Station
Overcast Overcast  
Wind Chill:   Ceiling: 4900
Heat Index:   Visibility: 10mi
Dew Point:   Wind: 6mph
Humidity: 68%   Direction: 220°SW
Pressure: 30.01"   Gusts: NA
Location:  42.3129°N, 84.0322°W
Report Text: KARB 310353Z AUTO 22005KT 10SM OVC049 07/02 A3001 RMK AO2 SLP165 T00720017
Loading
Personal Weather Stations






























Interactive Weather Map
Tropical Storm Tracking
New forecast layout! Learn more

10-Day Weather Forecast

Advertisements
Track Severe Weather on mobile